Time;durP1;ratioP1;P1;durP2;ratioP2;P2;SDS_P1;SDS_P2;PMS_P1;PMS_P2;Temp;Humidity;BMP_temperature;BMP_pressure;BME280_temperature;BME280_humidity;BME280_pressure;Samples;Min_cycle;Max_cycle;Signal;HPM_P1;HPM_P2
2022/01/22 00:00:33;;;;;;;11.70;5.05;;;;;;;4.47;49.86;100212.72;5091422;28;20486;-50
2022/01/22 00:02:59;;;;;;;20.00;4.32;;;;;;;4.37;49.70;100212.63;5090219;28;20390;-50
2022/01/22 00:05:25;;;;;;;11.38;3.92;;;;;;;4.33;50.24;100208.63;5094137;28;20034;-50
2022/01/22 00:07:51;;;;;;;9.52;3.78;;;;;;;4.33;50.21;100216.41;5095342;28;20022;-51
2022/01/22 00:10:19;;;;;;;7.65;3.78;;;;;;;4.35;49.91;100212.75;5093967;28;20035;-51
2022/01/22 00:15:18;;;;;;;10.50;3.72;;;;;;;4.29;50.12;100207.22;5095327;28;20036;-50
2022/01/22 00:17:47;;;;;;;11.88;3.58;;;;;;;4.31;50.48;100198.34;5095175;28;20035;-50
2022/01/22 00:20:16;;;;;;;8.77;4.35;;;;;;;4.41;50.36;100198.44;5095004;28;20032;-50
2022/01/22 00:22:43;;;;;;;14.65;4.20;;;;;;;4.42;51.05;100204.44;5093782;28;20448;-51
2022/01/22 00:25:10;;;;;;;11.20;4.25;;;;;;;4.56;50.45;100198.97;5095004;28;20016;-50
2022/01/22 00:27:37;;;;;;;19.92;8.07;;;;;;;4.62;50.09;100202.84;5095001;28;20024;-50
2022/01/22 00:30:09;;;;;;;10.85;5.78;;;;;;;4.62;50.08;100203.66;5094914;28;20024;-50
2022/01/22 00:32:36;;;;;;;15.15;7.30;;;;;;;4.60;50.31;100211.56;5094928;28;20048;-48
2022/01/22 00:35:03;;;;;;;13.27;5.15;;;;;;;4.64;50.45;100212.16;5093486;28;20498;-48
2022/01/22 00:37:29;;;;;;;9.90;5.00;;;;;;;4.68;50.37;100215.34;5094636;28;20052;-49
2022/01/22 00:39:54;;;;;;;10.25;4.10;;;;;;;4.46;50.43;100214.47;5094686;28;20359;-47
2022/01/22 00:42:22;;;;;;;12.40;5.10;;;;;;;4.27;50.44;100211.72;5093387;28;20020;-48
2022/01/22 00:44:51;;;;;;;11.18;4.50;;;;;;;4.23;51.38;100212.91;5094735;28;20020;-47
2022/01/22 00:47:19;;;;;;;14.57;3.85;;;;;;;4.15;51.40;100216.91;5093254;28;20028;-48
2022/01/22 00:49:46;;;;;;;13.88;7.55;;;;;;;4.10;51.49;100207.81;5093311;28;20024;-48
2022/01/22 00:52:13;;;;;;;9.32;4.65;;;;;;;4.15;51.94;100196.13;5094504;28;20024;-49
2022/01/22 00:54:38;;;;;;;9.88;4.70;;;;;;;4.17;52.10;100198.63;5094474;28;20038;-49
2022/01/22 00:57:05;;;;;;;12.32;4.10;;;;;;;4.16;52.06;100208.16;5094396;28;20106;-48
2022/01/22 00:59:31;;;;;;;11.75;4.85;;;;;;;4.20;51.83;100195.75;5093013;28;20070;-48
2022/01/22 01:01:57;;;;;;;15.60;5.72;;;;;;;4.26;51.94;100204.84;5094335;28;20070;-49
2022/01/22 01:04:23;;;;;;;15.82;5.13;;;;;;;4.31;51.83;100198.34;5094286;28;20024;-49
2022/01/22 01:06:48;;;;;;;12.57;5.38;;;;;;;4.35;51.78;100197.13;5092923;28;20028;-48
2022/01/22 01:09:14;;;;;;;249.15;171.38;;;;;;;4.28;51.76;100206.38;5092802;28;20070;-48
2022/01/22 01:11:54;;;;;;;56.30;36.72;;;;;;;4.19;52.60;100207.94;5094166;28;20039;-48
2022/01/22 01:14:28;;;;;;;39.17;22.65;;;;;;;4.22;52.71;100196.47;5094170;28;20394;-47
2022/01/22 01:33:27;;;;;;;9.13;4.13;;;;;;;4.22;52.18;100200.84;5084946;28;20510;-47
2022/01/22 01:35:52;;;;;;;17.35;5.10;;;;;;;4.28;52.18;100206.38;5093524;28;20064;-48
2022/01/22 01:38:21;;;;;;;14.75;4.47;;;;;;;4.39;52.19;100208.13;5093687;28;20069;-48
2022/01/22 01:41:01;;;;;;;12.30;4.03;;;;;;;4.42;52.02;100213.06;5093477;28;20073;-47
2022/01/22 01:43:33;;;;;;;14.20;4.45;;;;;;;4.47;51.43;100210.94;5093902;28;20020;-49
2022/01/22 01:45:59;;;;;;;13.70;6.72;;;;;;;4.53;51.75;100207.03;5093559;28;20032;-49
2022/01/22 01:48:29;;;;;;;12.10;4.22;;;;;;;4.51;51.60;100206.31;5093388;28;20016;-48
2022/01/22 01:50:57;;;;;;;13.05;4.95;;;;;;;4.43;51.29;100199.13;5093435;28;20028;-48
2022/01/22 01:58:24;;;;;;;10.13;4.88;;;;;;;4.39;51.78;100205.53;5093268;28;20028;-49
2022/01/22 02:00:50;;;;;;;13.10;5.55;;;;;;;4.37;52.10;100210.84;5093108;28;20052;-51
2022/01/22 02:03:16;;;;;;;10.18;4.40;;;;;;;4.36;51.90;100209.19;5093153;28;20525;-49
2022/01/22 02:05:42;;;;;;;11.80;4.40;;;;;;;4.41;51.94;100201.03;5093142;28;20028;-51
2022/01/22 02:08:10;;;;;;;12.35;5.03;;;;;;;4.48;51.77;100207.38;5093009;28;20095;-48
2022/01/22 02:10:42;;;;;;;11.00;4.70;;;;;;;4.55;51.67;100202.53;5093010;28;20020;-48
2022/01/22 02:24:06;;;;;;;9.60;5.00;;;;;;;4.59;51.19;100189.16;5092831;28;20031;-50
2022/01/22 02:26:32;;;;;;;8.55;4.53;;;;;;;4.46;51.64;100192.84;5091036;28;20028;-49
2022/01/22 02:28:58;;;;;;;13.70;5.40;;;;;;;4.45;51.59;100188.59;5092524;28;20440;-50
2022/01/22 02:31:54;;;;;;;11.10;4.32;;;;;;;4.47;52.08;100179.75;5092591;28;20024;-50
2022/01/22 02:34:42;;;;;;;14.52;4.80;;;;;;;4.59;51.57;100189.16;5092326;28;20055;-50
2022/01/22 02:37:13;;;;;;;11.27;5.63;;;;;;;4.55;51.85;100187.75;5092352;28;20044;-49
2022/01/22 02:39:44;;;;;;;11.50;4.93;;;;;;;4.46;51.56;100182.47;5092512;28;20077;-51
2022/01/22 02:42:10;;;;;;;13.15;4.85;;;;;;;4.48;51.98;100181.38;5092505;28;20028;-51
2022/01/22 02:44:44;;;;;;;14.75;6.07;;;;;;;4.49;51.95;100188.25;5092448;28;20027;-50
2022/01/22 02:47:11;;;;;;;12.48;4.63;;;;;;;4.47;52.32;100191.91;5092468;28;20038;-51
2022/01/22 02:49:37;;;;;;;17.33;5.22;;;;;;;4.43;52.14;100193.09;5091025;28;20027;-51
2022/01/22 02:52:09;;;;;;;10.80;4.55;;;;;;;4.35;52.30;100196.31;5092240;28;20410;-51
2022/01/22 02:54:36;;;;;;;10.88;4.80;;;;;;;4.25;52.72;100200.59;5092317;28;20031;-50
2022/01/22 02:57:02;;;;;;;11.45;4.40;;;;;;;4.16;53.09;100202.16;5092159;28;20501;-51
2022/01/22 02:59:28;;;;;;;11.05;5.78;;;;;;;4.03;53.24;100199.69;5090840;28;20016;-50
2022/01/22 03:01:54;;;;;;;13.43;5.53;;;;;;;3.94;53.07;100208.19;5092139;28;20020;-49
2022/01/22 03:04:20;;;;;;;16.35;5.25;;;;;;;3.94;53.58;100206.44;5090767;28;20042;-48
2022/01/22 03:06:48;;;;;;;16.65;5.30;;;;;;;3.91;53.95;100205.84;5092098;28;20489;-49
2022/01/22 03:09:16;;;;;;;16.27;6.38;;;;;;;3.95;53.70;100215.06;5092319;28;20050;-47
2022/01/22 03:12:11;;;;;;;12.13;4.88;;;;;;;3.92;54.37;100205.72;5091957;28;20024;-48
2022/01/22 03:22:19;;;;;;;10.52;4.95;;;;;;;4.08;54.38;100207.94;5091926;28;20034;-50
2022/01/22 03:27:31;;;;;;;14.93;8.15;;;;;;;4.09;54.18;100217.41;5092202;28;20457;-51
2022/01/22 03:29:58;;;;;;;18.38;6.78;;;;;;;4.02;54.63;100216.22;5091804;28;20024;-50
2022/01/22 03:32:27;;;;;;;13.98;6.88;;;;;;;3.95;54.80;100212.47;5090463;28;20024;-50
2022/01/22 03:35:00;;;;;;;14.25;5.78;;;;;;;3.98;55.17;100215.66;5090460;28;20115;-49
2022/01/22 03:37:27;;;;;;;13.88;5.50;;;;;;;4.09;54.93;100209.59;5090357;28;20071;-51
2022/01/22 03:39:55;;;;;;;13.32;6.35;;;;;;;4.08;54.82;100204.53;5093991;28;20028;-50
2022/01/22 03:42:21;;;;;;;22.95;7.28;;;;;;;4.01;55.07;100209.38;5096098;28;20053;-51
2022/01/22 03:44:47;;;;;;;15.52;7.38;;;;;;;3.90;55.02;100211.97;5094568;28;20158;-50
2022/01/22 03:47:13;;;;;;;14.48;7.82;;;;;;;3.84;55.65;100210.69;5094464;28;20119;-47
2022/01/22 03:49:39;;;;;;;10.93;6.28;;;;;;;3.87;55.76;100205.25;5094416;28;20020;-47
2022/01/22 03:52:05;;;;;;;12.90;7.13;;;;;;;3.85;55.93;100209.75;5095700;28;20070;-49
2022/01/22 03:54:31;;;;;;;16.90;9.02;;;;;;;3.78;55.87;100204.22;5095662;28;20020;-48
2022/01/22 03:56:57;;;;;;;14.10;6.40;;;;;;;3.73;56.35;100213.31;5095593;28;20114;-49
2022/01/22 03:59:23;;;;;;;15.95;6.95;;;;;;;3.82;56.36;100209.16;5095537;28;20012;-48
2022/01/22 04:04:21;;;;;;;16.63;6.78;;;;;;;3.94;56.08;100210.78;5095419;28;20406;-49
2022/01/22 04:07:25;;;;;;;14.88;7.47;;;;;;;3.97;55.98;100210.56;5095490;28;20077;-49
2022/01/22 04:09:45;;;;;;;11.07;5.40;;;;;;;3.92;55.69;100205.72;5095238;28;20422;-49
2022/01/22 04:12:14;;;;;;;12.82;6.28;;;;;;;3.87;56.28;100202.66;5095323;28;20103;-48
2022/01/22 04:14:54;;;;;;;15.48;6.10;;;;;;;4.03;56.45;100198.88;5095266;28;20055;-50
2022/01/22 04:17:35;;;;;;;15.07;5.65;;;;;;;4.13;55.55;100205.81;5093935;28;20032;-50
2022/01/22 04:25:37;;;;;;;9.45;4.90;;;;;;;3.84;55.86;100210.69;5095103;28;20123;-51
2022/01/22 04:28:02;;;;;;;10.10;5.32;;;;;;;3.85;55.89;100207.16;5093784;28;20044;-50
2022/01/22 04:30:29;;;;;;;12.25;5.13;;;;;;;3.75;55.71;100204.44;5093673;28;20042;-50
2022/01/22 04:32:54;;;;;;;14.48;5.13;;;;;;;3.66;56.17;100209.50;5094960;28;20024;-50
2022/01/22 04:35:23;;;;;;;15.10;4.82;;;;;;;3.64;56.58;100207.03;5094922;28;20016;-50
2022/01/22 04:37:50;;;;;;;13.88;5.05;;;;;;;3.77;56.43;100206.94;5094917;28;20028;-48
2022/01/22 04:40:16;;;;;;;11.90;5.18;;;;;;;3.87;56.00;100205.25;5094669;28;20032;-49
2022/01/22 04:42:43;;;;;;;12.23;5.97;;;;;;;3.78;56.04;100201.63;5093465;28;20054;-49
2022/01/22 04:45:30;;;;;;;15.82;5.85;;;;;;;3.69;56.00;100204.91;5094697;28;20024;-48
2022/01/22 04:48:24;;;;;;;10.40;5.72;;;;;;;3.56;56.25;100205.03;5094690;28;20077;-48
2022/01/22 04:55:53;;;;;;;15.70;5.70;;;;;;;3.48;56.56;100210.00;5094420;28;20028;-48
2022/01/22 04:58:19;;;;;;;12.43;6.28;;;;;;;3.50;56.83;100212.44;5094438;28;20026;-49
2022/01/22 05:00:45;;;;;;;12.77;5.78;;;;;;;3.45;56.65;100218.00;5094341;28;20024;-48
2022/01/22 05:03:11;;;;;;;9.32;5.43;;;;;;;3.39;56.61;100218.47;5094305;28;20025;-48
2022/01/22 05:05:37;;;;;;;18.77;5.30;;;;;;;3.36;56.93;100211.75;5092961;28;20485;-49
2022/01/22 05:08:03;;;;;;;10.93;5.00;;;;;;;3.35;56.53;100222.25;5092941;28;20038;-49
2022/01/22 05:10:29;;;;;;;7.50;5.07;;;;;;;3.31;56.71;100237.22;5094191;28;20439;-49
2022/01/22 05:12:55;;;;;;;16.40;6.35;;;;;;;3.27;57.01;100233.19;5094182;28;20150;-49
2022/01/22 05:15:21;;;;;;;12.38;6.07;;;;;;;3.31;57.23;100232.03;5094146;28;20020;-50
2022/01/22 05:17:48;;;;;;;14.98;5.28;;;;;;;3.39;56.87;100231.44;5092674;28;20055;-49
2022/01/22 05:20:21;;;;;;;14.98;5.75;;;;;;;3.42;57.26;100243.34;5092611;28;20024;-47
2022/01/22 05:25:29;;;;;;;13.02;5.68;;;;;;;3.73;56.76;100245.28;5093963;28;20024;-48
2022/01/22 05:28:17;;;;;;;9.15;4.68;;;;;;;4.07;56.82;100242.69;5093890;28;20104;-49
2022/01/22 05:33:29;;;;;;;18.27;6.72;;;;;;;4.80;54.84;100245.56;5093792;28;20058;-49
2022/01/22 05:38:39;;;;;;;13.15;5.35;;;;;;;5.19;53.82;100253.63;5093982;28;20059;-48
2022/01/22 05:41:05;;;;;;;10.40;5.47;;;;;;;5.15;53.44;100257.44;5092503;28;20059;-48
2022/01/22 05:43:31;;;;;;;11.85;5.18;;;;;;;5.18;53.19;100257.22;5092252;28;20107;-49
2022/01/22 05:45:56;;;;;;;7.90;5.05;;;;;;;5.27;52.92;100255.63;5092153;28;20020;-47
2022/01/22 05:48:23;;;;;;;9.75;5.18;;;;;;;5.28;52.56;100259.88;5093511;28;20016;-49
2022/01/22 05:53:32;;;;;;;13.90;6.53;;;;;;;4.87;53.55;100266.69;5093355;28;20025;-48
2022/01/22 06:01:19;;;;;;;;;;;;;;;4.99;53.95;100265.72;5093203;28;20475;-49
2022/01/22 06:03:45;;;;;;;11.38;5.32;;;;;;;5.04;53.51;100270.53;5091406;28;20339;-48
2022/01/22 06:06:11;;;;;;;11.90;5.82;;;;;;;4.97;53.55;100268.44;5093125;28;20031;-47
2022/01/22 06:08:47;;;;;;;20.13;8.82;;;;;;;4.83;53.19;100270.47;5091777;28;20028;-47
2022/01/22 06:11:21;;;;;;;14.95;6.10;;;;;;;4.72;53.92;100271.34;5093118;28;20039;-47
2022/01/22 06:13:48;;;;;;;11.57;6.03;;;;;;;4.51;54.09;100271.31;5093053;28;20036;-48
2022/01/22 06:16:16;;;;;;;18.08;6.70;;;;;;;4.46;54.47;100263.84;5091587;28;20493;-47
2022/01/22 06:18:42;;;;;;;15.10;5.80;;;;;;;4.69;54.94;100266.38;5091652;28;20032;-47
2022/01/22 06:21:09;;;;;;;22.65;7.28;;;;;;;4.85;54.08;100269.44;5092758;28;20523;-48
2022/01/22 06:23:36;;;;;;;12.98;6.85;;;;;;;4.87;53.98;100272.72;5092852;28;20059;-48
2022/01/22 06:26:03;;;;;;;17.35;7.10;;;;;;;4.95;53.72;100275.53;5092752;28;20028;-48
2022/01/22 06:28:30;;;;;;;15.75;6.63;;;;;;;5.09;53.58;100273.56;5092799;28;20440;-47
2022/01/22 06:30:57;;;;;;;17.35;8.48;;;;;;;5.16;53.55;100285.97;5092644;28;20070;-47
2022/01/22 06:33:23;;;;;;;13.88;6.68;;;;;;;5.14;53.20;100281.84;5091304;28;20450;-50
2022/01/22 06:35:49;;;;;;;14.75;6.13;;;;;;;5.12;53.09;100281.13;5092361;28;20063;-50
2022/01/22 06:38:16;;;;;;;18.80;6.82;;;;;;;5.14;53.57;100276.63;5092577;28;20486;-49
2022/01/22 06:43:08;;;;;;;16.83;7.22;;;;;;;5.09;53.31;100283.97;5092478;28;20043;-48
2022/01/22 06:45:33;;;;;;;15.68;8.45;;;;;;;5.05;53.05;100279.97;5092387;28;20497;-48
2022/01/22 06:47:59;;;;;;;14.23;7.25;;;;;;;4.89;53.27;100286.44;5091041;28;20103;-47
2022/01/22 06:50:25;;;;;;;21.83;8.02;;;;;;;4.84;53.74;100274.75;5092366;28;20021;-48
2022/01/22 06:52:58;;;;;;;13.30;6.43;;;;;;;4.96;53.84;100277.16;5092268;28;20021;-49
2022/01/22 06:55:37;;;;;;;12.75;6.95;;;;;;;5.04;53.72;100271.34;5092328;28;20031;-49
2022/01/22 06:58:03;;;;;;;12.23;6.97;;;;;;;5.15;53.42;100279.13;5092283;28;20028;-47
2022/01/22 07:00:29;;;;;;;12.73;6.88;;;;;;;5.18;53.31;100278.03;5092119;28;20443;-48
2022/01/22 07:02:54;;;;;;;13.43;6.50;;;;;;;5.24;53.43;100281.91;5092186;28;20028;-48
2022/01/22 07:05:20;;;;;;;18.70;7.63;;;;;;;5.36;52.91;100273.91;5090863;28;20477;-48
2022/01/22 07:07:46;;;;;;;20.13;7.30;;;;;;;5.36;52.42;100270.47;5092143;28;20494;-47
2022/01/22 07:10:11;;;;;;;14.80;7.45;;;;;;;5.25;52.38;100276.59;5092099;28;20093;-47
2022/01/22 07:12:37;;;;;;;12.50;7.45;;;;;;;5.16;52.87;100275.53;5092008;28;20031;-48
2022/01/22 07:15:04;;;;;;;15.88;9.18;;;;;;;5.21;53.24;100272.56;5090551;28;20128;-47
2022/01/22 07:17:35;;;;;;;16.52;7.03;;;;;;;5.33;52.95;100281.13;5091978;28;20016;-48
2022/01/22 07:20:03;;;;;;;13.43;6.47;;;;;;;5.39;52.53;100291.03;5090545;28;20100;-48
2022/01/22 07:22:37;;;;;;;11.00;6.72;;;;;;;5.40;52.75;100293.53;5091905;28;20520;-48
2022/01/22 07:25:03;;;;;;;17.55;8.52;;;;;;;5.41;52.33;100289.13;5091923;28;20024;-48
2022/01/22 07:27:29;;;;;;;13.02;7.93;;;;;;;5.42;52.65;100293.41;5091911;28;20165;-49
2022/01/22 07:29:55;;;;;;;14.18;7.35;;;;;;;5.44;52.71;100288.88;5091839;28;20554;-47
2022/01/22 07:32:35;;;;;;;17.45;7.72;;;;;;;5.48;52.27;100285.09;5091796;28;20583;-47
2022/01/22 07:35:02;;;;;;;11.77;6.45;;;;;;;5.48;52.62;100308.50;5090492;28;20043;-48
2022/01/22 07:37:28;;;;;;;10.95;7.50;;;;;;;5.58;52.30;100303.38;5091550;28;20040;-49
2022/01/22 07:39:54;;;;;;;12.00;6.60;;;;;;;5.66;51.99;100295.75;5090333;28;20109;-49
2022/01/22 07:42:19;;;;;;;11.35;7.20;;;;;;;5.71;51.63;100301.38;5090429;28;20081;-48
2022/01/22 07:44:45;;;;;;;13.05;6.65;;;;;;;5.77;51.41;100300.84;5091682;28;20101;-49
2022/01/22 07:47:11;;;;;;;13.77;7.00;;;;;;;5.75;51.15;100300.16;5091707;28;20085;-49
2022/01/22 07:49:37;;;;;;;15.32;7.70;;;;;;;5.77;51.24;100306.06;5091623;28;20028;-48
2022/01/22 07:52:03;;;;;;;11.65;6.80;;;;;;;5.87;51.99;100300.09;5091643;28;20020;-48
2022/01/22 07:54:32;;;;;;;12.30;6.63;;;;;;;5.96;51.50;100304.56;5091624;28;20026;-47
2022/01/22 07:56:57;;;;;;;13.20;7.50;;;;;;;5.87;50.67;100305.31;5091630;28;20031;-48
2022/01/22 07:59:23;;;;;;;9.20;6.43;;;;;;;5.68;51.25;100311.25;5090166;28;20398;-48
2022/01/22 08:01:49;;;;;;;11.85;7.20;;;;;;;5.55;51.47;100304.47;5091462;28;20035;-47
2022/01/22 08:04:22;;;;;;;14.90;6.82;;;;;;;5.44;51.10;100299.31;5090232;28;20021;-48
2022/01/22 08:06:48;;;;;;;13.75;7.82;;;;;;;5.19;51.76;100308.28;5091537;28;20039;-48
2022/01/22 08:09:14;;;;;;;12.13;6.30;;;;;;;5.31;52.28;100311.69;5091510;28;20016;-49
2022/01/22 08:11:39;;;;;;;15.38;6.75;;;;;;;5.46;52.60;100302.63;5091446;28;20016;-47
2022/01/22 08:14:07;;;;;;;11.70;6.07;;;;;;;5.68;52.17;100303.44;5091478;28;20536;-47
2022/01/22 08:16:32;;;;;;;15.02;6.32;;;;;;;5.78;51.23;100299.09;5091415;28;20028;-47
2022/01/22 08:18:58;;;;;;;14.30;7.47;;;;;;;5.68;50.72;100299.03;5091389;28;20025;-48
2022/01/22 08:21:24;;;;;;;15.25;6.82;;;;;;;5.63;51.50;100295.16;5091263;28;20028;-47
2022/01/22 08:23:50;;;;;;;13.30;6.60;;;;;;;5.73;51.45;100285.63;5091545;28;20024;-48
2022/01/22 08:26:20;;;;;;;13.40;7.30;;;;;;;5.93;51.05;100278.72;5092337;28;20033;-48
2022/01/22 08:28:57;;;;;;;26.13;14.70;;;;;;;6.11;51.10;100274.56;5095061;28;20028;-49
2022/01/22 08:31:40;;;;;;;12.23;7.75;;;;;;;6.23;50.82;100290.94;5093688;28;20112;-47
2022/01/22 08:36:51;;;;;;;13.13;6.72;;;;;;;6.15;51.05;100288.16;5094785;28;20135;-48
2022/01/22 08:39:18;;;;;;;13.57;6.82;;;;;;;6.34;50.37;100290.84;5094739;28;20047;-48
2022/01/22 08:41:44;;;;;;;8.05;6.00;;;;;;;6.52;49.82;100300.59;5093442;28;20451;-48
2022/01/22 08:44:11;;;;;;;11.23;6.03;;;;;;;6.54;49.63;100304.75;5094758;28;20052;-48
2022/01/22 08:46:37;;;;;;;8.10;5.30;;;;;;;6.40;49.03;100305.13;5093328;28;20520;-48
2022/01/22 08:49:05;;;;;;;15.00;6.65;;;;;;;6.14;49.85;100308.19;5093370;28;20520;-47
2022/01/22 08:51:37;;;;;;;12.52;6.95;;;;;;;6.05;49.83;100308.16;5094590;28;20028;-48
2022/01/22 08:54:03;;;;;;;13.23;6.03;;;;;;;6.11;50.20;100316.28;5094595;28;20161;-47
2022/01/22 08:56:29;;;;;;;13.75;6.55;;;;;;;6.22;50.54;100309.31;5094521;28;20047;-47
2022/01/22 08:58:56;;;;;;;16.73;6.60;;;;;;;6.36;50.46;100311.56;5094498;28;20024;-47
2022/01/22 09:01:23;;;;;;;13.73;7.60;;;;;;;6.42;50.09;100321.47;5094357;28;20034;-48
2022/01/22 09:03:49;;;;;;;8.93;5.68;;;;;;;6.49;49.65;100324.38;5094431;28;20024;-48
2022/01/22 09:06:17;;;;;;;11.70;7.63;;;;;;;6.53;49.80;100316.13;5094236;28;20025;-47
2022/01/22 09:08:45;;;;;;;15.52;7.20;;;;;;;6.56;49.73;100312.44;5094471;28;20077;-48
2022/01/22 09:11:12;;;;;;;14.77;7.72;;;;;;;6.67;49.83;100325.38;5094233;28;20069;-48
2022/01/22 09:13:37;;;;;;;19.40;7.78;;;;;;;6.90;49.73;100315.53;5094201;28;20020;-48
2022/01/22 09:16:04;;;;;;;14.20;7.38;;;;;;;7.14;48.67;100314.28;5094146;28;20021;-48
2022/01/22 09:18:30;;;;;;;14.20;7.80;;;;;;;7.27;48.07;100314.00;5094091;28;20020;-48
2022/01/22 09:21:04;;;;;;;14.70;7.30;;;;;;;7.30;48.29;100308.50;5093952;28;20023;-48
2022/01/22 09:23:32;;;;;;;11.00;6.18;;;;;;;7.28;47.43;100313.84;5093992;28;20035;-47
2022/01/22 09:25:58;;;;;;;13.20;6.25;;;;;;;7.03;47.62;100312.63;5093907;28;20020;-49
2022/01/22 09:28:25;;;;;;;12.65;6.55;;;;;;;6.74;47.91;100316.06;5093874;28;20020;-48
2022/01/22 09:30:51;;;;;;;14.63;7.13;;;;;;;6.61;48.84;100318.06;5092519;28;20028;-48
2022/01/22 09:33:17;;;;;;;17.65;7.57;;;;;;;6.61;48.52;100307.66;5093857;28;20438;-48
2022/01/22 09:35:43;;;;;;;12.88;6.45;;;;;;;6.75;48.54;100319.47;5093415;28;20528;-48
2022/01/22 09:38:09;;;;;;;14.20;7.18;;;;;;;7.02;48.11;100308.34;5093747;28;20042;-48
2022/01/22 09:40:35;;;;;;;11.32;6.03;;;;;;;7.20;47.39;100309.34;5093555;28;20024;-49
2022/01/22 09:43:01;;;;;;;14.60;7.03;;;;;;;7.31;47.64;100310.16;5092265;28;20562;-48
2022/01/22 09:45:31;;;;;;;17.73;8.10;;;;;;;7.44;47.76;100304.63;5092257;28;20032;-48
2022/01/22 09:47:59;;;;;;;16.15;6.78;;;;;;;7.65;46.92;100310.50;5093562;28;20043;-47
2022/01/22 09:50:26;;;;;;;10.90;6.68;;;;;;;7.80;46.61;100308.25;5093453;28;20085;-49
2022/01/22 09:52:53;;;;;;;9.52;6.38;;;;;;;7.85;47.25;100308.69;5093402;28;20028;-49
2022/01/22 09:55:19;;;;;;;10.75;7.05;;;;;;;7.80;46.26;100306.47;5093343;28;20024;-47
2022/01/22 09:57:45;;;;;;;14.75;6.60;;;;;;;7.65;46.37;100304.47;5093278;28;20020;-49
2022/01/22 10:00:14;;;;;;;15.05;7.72;;;;;;;7.67;47.59;100305.97;5093256;28;20028;-49
2022/01/22 10:02:48;;;;;;;16.25;8.13;;;;;;;7.84;46.80;100308.81;5092236;28;20020;-49
2022/01/22 10:05:35;;;;;;;12.85;6.38;;;;;;;7.96;46.78;100310.28;5091940;28;20081;-48
2022/01/22 10:08:20;;;;;;;14.55;7.03;;;;;;;7.81;46.32;100307.31;5091890;28;20032;-48
2022/01/22 10:10:46;;;;;;;19.15;7.85;;;;;;;7.64;47.15;100308.84;5093320;28;20046;-48
2022/01/22 10:13:12;;;;;;;17.67;7.78;;;;;;;7.76;47.25;100312.94;5093038;28;20069;-47
2022/01/22 10:15:39;;;;;;;13.60;8.23;;;;;;;7.74;47.15;100306.22;5092972;28;20515;-48
2022/01/22 10:18:06;;;;;;;17.52;6.57;;;;;;;7.81;47.15;100315.16;5092896;28;20020;-49
2022/01/22 10:20:40;;;;;;;12.80;6.97;;;;;;;8.05;46.81;100314.66;5092733;28;20085;-48
2022/01/22 10:23:08;;;;;;;14.30;7.70;;;;;;;8.25;46.52;100317.19;5092904;28;20020;-47
2022/01/22 10:25:38;;;;;;;13.40;6.40;;;;;;;8.47;45.90;100322.06;5091471;28;20031;-48
2022/01/22 10:28:23;;;;;;;13.48;7.50;;;;;;;8.99;45.20;100326.69;5092826;28;20027;-49
2022/01/22 10:31:06;;;;;;;13.73;7.80;;;;;;;9.30;44.49;100314.03;5092728;28;20055;-48
2022/01/22 10:33:35;;;;;;;13.32;7.55;;;;;;;9.64;42.86;100317.69;5092748;28;20028;-48
2022/01/22 10:36:09;;;;;;;11.27;6.68;;;;;;;9.28;43.41;100313.34;5092374;28;20071;-48
2022/01/22 10:38:49;;;;;;;13.15;7.38;;;;;;;9.55;44.17;100309.78;5092562;28;20024;-48
2022/01/22 10:41:19;;;;;;;10.98;6.28;;;;;;;10.12;43.46;100297.97;5092467;28;20031;-49
2022/01/22 10:43:55;;;;;;;11.70;7.03;;;;;;;10.57;41.57;100292.41;5092494;28;20020;-49
2022/01/22 10:48:58;;;;;;;13.68;6.55;;;;;;;10.85;40.60;100302.66;5091952;28;20031;-48
2022/01/22 10:51:29;;;;;;;11.13;7.38;;;;;;;11.14;40.06;100288.22;5092273;28;20027;-48
2022/01/22 10:54:00;;;;;;;16.75;6.72;;;;;;;10.90;40.33;100286.41;5092296;28;20016;-49
2022/01/22 10:56:31;;;;;;;12.45;7.13;;;;;;;10.54;40.95;100282.25;5092339;28;20504;-48
2022/01/22 10:59:01;;;;;;;16.15;7.50;;;;;;;10.43;41.29;100286.97;5092255;28;20111;-47
2022/01/22 11:01:43;;;;;;;16.95;7.18;;;;;;;10.25;41.12;100276.56;5090769;28;20122;-48
2022/01/22 11:04:36;;;;;;;16.95;8.27;;;;;;;10.00;41.86;100279.09;5092172;28;20405;-48
2022/01/22 11:07:05;;;;;;;14.30;7.95;;;;;;;10.03;42.06;100283.19;5083721;28;20142;-49
2022/01/22 11:09:32;;;;;;;12.30;7.90;;;;;;;10.90;41.82;100283.78;5090768;28;20027;-48
2022/01/22 11:12:00;;;;;;;19.10;7.43;;;;;;;11.69;39.76;100273.53;5092067;28;20051;-48
2022/01/22 11:14:28;;;;;;;15.00;7.35;;;;;;;12.02;39.66;100271.66;5091995;28;20162;-49
2022/01/22 11:16:54;;;;;;;14.75;6.57;;;;;;;12.64;38.32;100265.59;5073801;28;20024;-49
2022/01/22 11:19:30;;;;;;;9.85;6.70;;;;;;;13.84;37.25;100258.75;5091938;28;20032;-49
2022/01/22 11:21:57;;;;;;;10.07;5.90;;;;;;;14.66;35.75;100255.09;5090651;28;20042;-49
2022/01/22 11:24:25;;;;;;;8.23;5.93;;;;;;;14.91;34.22;100251.06;5090554;28;20024;-49
2022/01/22 11:26:57;;;;;;;9.68;6.43;;;;;;;14.81;33.75;100244.44;5091916;28;20085;-50
2022/01/22 11:29:34;;;;;;;12.20;6.45;;;;;;;14.37;33.73;100244.41;5091879;28;20401;-49
2022/01/22 11:32:04;;;;;;;10.05;5.88;;;;;;;13.72;34.63;100255.75;5090594;28;20036;-49
2022/01/22 11:34:32;;;;;;;11.10;6.32;;;;;;;13.67;34.67;100253.69;5090544;28;20398;-50
2022/01/22 11:37:38;;;;;;;9.95;5.68;;;;;;;12.98;35.76;100249.34;5091541;28;20043;-48
2022/01/22 11:40:11;;;;;;;13.98;7.30;;;;;;;12.75;36.29;100246.72;5091738;28;20046;-50
2022/01/22 11:43:09;;;;;;;12.93;6.28;;;;;;;11.96;36.90;100244.22;5091736;28;20417;-49
2022/01/22 11:45:44;;;;;;;10.48;6.10;;;;;;;11.28;37.74;100240.25;5091727;28;20023;-49
2022/01/22 11:48:20;;;;;;;8.10;5.37;;;;;;;11.07;38.63;100229.44;5092002;28;20099;-48
2022/01/22 11:50:49;;;;;;;10.60;5.90;;;;;;;11.71;38.31;100222.41;5091709;28;20258;-49
2022/01/22 11:53:23;;;;;;;11.45;5.82;;;;;;;12.27;37.22;100219.72;5091692;28;20020;-49
2022/01/22 11:56:10;;;;;;;12.32;6.30;;;;;;;12.51;36.86;100228.47;5091636;28;20103;-49
2022/01/22 11:58:54;;;;;;;10.40;6.07;;;;;;;12.69;36.92;100220.25;5091650;28;20028;-50
2022/01/22 12:02:03;;;;;;;11.00;5.68;;;;;;;13.87;36.04;100216.19;5092877;28;20081;-49
2022/01/22 12:04:38;;;;;;;10.13;6.15;;;;;;;14.89;34.54;100199.38;5092794;28;20040;-49
2022/01/22 12:07:04;;;;;;;10.00;6.03;;;;;;;15.20;33.40;100198.19;5095558;28;20070;-49
2022/01/22 12:09:50;;;;;;;14.75;8.32;;;;;;;15.22;33.05;100194.34;5094137;28;20110;-50
2022/01/22 12:15:35;;;;;;;15.13;7.00;;;;;;;13.96;34.22;100186.03;5095639;28;20441;-49
2022/01/22 12:18:03;;;;;;;12.23;7.03;;;;;;;13.41;35.18;100197.91;5095365;28;20098;-49
2022/01/22 12:23:09;;;;;;;13.02;7.45;;;;;;;13.02;36.36;100185.72;5095211;28;20028;-49
2022/01/22 12:25:34;;;;;;;12.50;7.03;;;;;;;13.77;35.60;100187.44;5093792;28;20028;-49
2022/01/22 12:28:01;;;;;;;11.80;6.20;;;;;;;14.38;35.10;100168.59;5095179;28;20016;-49
2022/01/22 12:30:38;;;;;;;13.00;6.97;;;;;;;14.80;34.27;100172.28;5093731;28;20481;-49
2022/01/22 12:33:12;;;;;;;10.38;7.38;;;;;;;14.97;33.83;100159.59;5093686;28;20031;-49
2022/01/22 12:35:44;;;;;;;15.07;10.82;;;;;;;15.09;33.60;100166.00;5094766;28;20398;-49
2022/01/22 12:38:24;;;;;;;10.02;6.93;;;;;;;15.12;33.01;100157.66;5094920;28;20452;-50
2022/01/22 12:40:56;;;;;;;8.98;6.22;;;;;;;15.12;33.35;100159.50;5093475;28;20055;-49
2022/01/22 12:43:29;;;;;;;8.98;6.53;;;;;;;15.18;33.10;100153.44;5094823;28;20028;-49
2022/01/22 12:46:01;;;;;;;10.98;7.00;;;;;;;14.60;33.59;100152.78;5093479;28;20024;-49
2022/01/22 12:48:29;;;;;;;10.70;7.18;;;;;;;14.01;34.27;100151.19;5095294;28;20055;-48
2022/01/22 12:51:01;;;;;;;9.60;6.80;;;;;;;13.28;35.59;100151.03;5093313;28;20412;-48
2022/01/22 12:53:27;;;;;;;11.20;7.00;;;;;;;12.75;36.67;100146.59;5094652;28;20078;-49
2022/01/22 12:58:33;;;;;;;11.77;7.15;;;;;;;11.90;38.74;100159.91;5094492;28;20493;-48
2022/01/22 13:01:13;;;;;;;12.65;7.20;;;;;;;12.19;38.31;100148.69;5094446;28;20024;-48
2022/01/22 13:03:45;;;;;;;13.35;7.78;;;;;;;11.89;38.63;100142.44;5094488;28;20032;-49
2022/01/22 13:06:11;;;;;;;12.25;8.13;;;;;;;11.45;39.48;100150.84;5094421;28;20048;-49